Terminal Aerodrome Forecast
Issued by NWS Wilmington, OH

Current Version | Previous Version | Text Only | Print | Product List | Glossary Off
Versions: 1 2 3 4 5 6 7 8 9 10 11 12 13 14 15 16 17 18 19 20 21

000
FTUS41 KILN 270300 AAD
TAFDAY
TAF AMD
KDAY 270353Z 2704/2724 22010KT P6SM VCSH BKN040 OVC150
      TEMPO 2704/2705 3SM -TSRA OVC035CB
     FM270600 20008KT P6SM BKN035 BKN080
     FM271500 23011G20KT P6SM -SHRA VCTS BKN035CB
     FM272200 26012G25KT P6SM VCSH BKN050=

USA.gov is the U.S. government's official web portal to all federal, state and local government web resources and services.